Time;durP1;ratioP1;P1;durP2;ratioP2;P2;SDS_P1;SDS_P2;PMS_P1;PMS_P2;Temp;Humidity;BMP_temperature;BMP_pressure;BME280_temperature;BME280_humidity;BME280_pressure;Samples;Min_cycle;Max_cycle;Signal;HPM_P1;HPM_P2
2022/04/28 00:02:02;;;;;;;0.85;0.70;;;;;;;21.04;36.59;102682.38;5013069;28;20129;-71
2022/04/28 00:04:28;;;;;;;0.80;0.80;;;;;;;21.02;36.37;102685.38;5013006;28;20030;-71
2022/04/28 00:06:53;;;;;;;1.17;0.88;;;;;;;21.01;36.30;102683.69;5011877;28;20450;-72
2022/04/28 00:09:19;;;;;;;0.88;0.88;;;;;;;21.02;36.44;102698.31;5012963;28;20462;-72
2022/04/28 00:11:44;;;;;;;0.90;0.90;;;;;;;21.03;36.23;102702.75;5013248;28;20450;-72
2022/04/28 00:14:09;;;;;;;0.80;0.80;;;;;;;21.00;36.36;102701.31;5013709;28;20046;-72
2022/04/28 00:16:35;;;;;;;1.48;0.98;;;;;;;21.01;36.41;102702.16;5012849;28;20041;-72
2022/04/28 00:19:04;;;;;;;0.80;0.80;;;;;;;21.00;36.38;102697.72;5012579;28;20464;-72
2022/04/28 00:21:29;;;;;;;0.70;0.65;;;;;;;21.00;36.42;102700.47;5012787;28;20038;-72
2022/04/28 00:23:55;;;;;;;1.10;1.00;;;;;;;20.99;36.67;102696.03;5012699;28;20034;-71
2022/04/28 00:26:20;;;;;;;1.10;0.90;;;;;;;20.99;36.63;102701.53;5012577;28;20041;-71
2022/04/28 00:28:47;;;;;;;1.42;1.00;;;;;;;20.98;36.87;102692.44;5012684;28;20038;-71
2022/04/28 00:31:13;;;;;;;0.73;0.73;;;;;;;20.98;36.63;102700.72;5012920;28;20180;-71
2022/04/28 00:33:40;;;;;;;1.15;0.90;;;;;;;20.98;36.52;102695.19;5012636;28;20163;-71
2022/04/28 00:36:06;;;;;;;0.80;0.70;;;;;;;20.96;36.40;102691.81;5012548;28;20042;-71
2022/04/28 00:38:31;;;;;;;0.77;0.70;;;;;;;20.96;36.55;102697.34;5012576;28;20032;-71
2022/04/28 00:40:56;;;;;;;0.80;0.80;;;;;;;20.96;36.65;102696.50;5012770;28;20386;-71
2022/04/28 00:43:28;;;;;;;0.80;0.80;;;;;;;20.96;36.48;102691.00;5011587;28;20030;-71
2022/04/28 00:45:55;;;;;;;1.13;0.80;;;;;;;20.96;36.44;102688.22;5011968;28;20038;-71
2022/04/28 00:51:07;;;;;;;0.75;0.75;;;;;;;20.94;36.34;102682.97;5012650;28;20053;-71
2022/04/28 00:53:35;;;;;;;0.65;0.65;;;;;;;20.95;36.44;102690.16;5012319;28;20034;-71
2022/04/28 00:56:01;;;;;;;1.60;0.90;;;;;;;20.94;36.69;102691.25;5012823;28;20037;-71
2022/04/28 00:58:27;;;;;;;0.90;0.82;;;;;;;20.95;36.51;102692.06;5012173;28;20466;-71
2022/04/28 01:00:56;;;;;;;0.70;0.70;;;;;;;20.94;36.51;102688.47;5010957;28;20458;-71
2022/04/28 01:03:22;;;;;;;0.80;0.80;;;;;;;20.93;36.47;102680.44;5011902;28;20064;-71
2022/04/28 01:05:48;;;;;;;1.00;0.82;;;;;;;20.93;36.59;102685.97;5012078;28;20034;-71
2022/04/28 01:08:15;;;;;;;0.73;0.73;;;;;;;20.92;36.42;102682.38;5012374;28;20041;-71
2022/04/28 01:10:40;;;;;;;0.77;0.77;;;;;;;20.91;36.39;102680.69;5012081;28;20034;-71
2022/04/28 01:13:06;;;;;;;0.90;0.90;;;;;;;20.92;36.58;102684.28;5011201;28;20038;-71
2022/04/28 01:15:44;;;;;;;1.05;0.73;;;;;;;20.94;36.58;102684.88;5012080;28;20082;-72
2022/04/28 01:18:10;;;;;;;0.88;0.82;;;;;;;20.90;36.53;102690.03;5011962;28;20042;-72
2022/04/28 01:20:35;;;;;;;1.13;0.82;;;;;;;20.91;36.38;102694.47;5012182;28;20117;-72
2022/04/28 01:23:03;;;;;;;0.98;0.80;;;;;;;20.90;36.43;102689.22;5011269;28;20038;-72
2022/04/28 01:25:28;;;;;;;0.80;0.80;;;;;;;20.90;36.46;102694.72;5011779;28;20069;-72
2022/04/28 01:27:54;;;;;;;0.82;0.80;;;;;;;20.89;36.38;102691.13;5010507;28;20064;-72
2022/04/28 01:30:19;;;;;;;1.30;0.80;;;;;;;20.88;36.47;102689.44;5011801;28;20390;-72
2022/04/28 01:32:44;;;;;;;0.80;0.80;;;;;;;20.88;36.48;102692.22;5012561;28;20038;-72
2022/04/28 01:35:10;;;;;;;0.90;0.77;;;;;;;20.87;36.63;102686.94;5010499;28;20466;-71
2022/04/28 01:37:35;;;;;;;0.85;0.70;;;;;;;20.87;36.63;102693.28;5012199;28;20143;-71
2022/04/28 01:40:01;;;;;;;0.80;0.77;;;;;;;20.87;36.66;102687.75;4994062;28;20120;-71
2022/04/28 01:42:26;;;;;;;0.80;0.80;;;;;;;20.87;36.38;102693.28;5010565;28;20065;-71
2022/04/28 01:44:52;;;;;;;1.15;1.10;;;;;;;20.86;36.35;102691.63;5011502;28;20523;-71
2022/04/28 01:47:17;;;;;;;1.35;1.00;;;;;;;20.87;36.34;102692.44;5010346;28;20113;-72
2022/04/28 01:49:44;;;;;;;0.80;0.80;;;;;;;20.85;36.38;102688.00;5011500;28;20470;-71
2022/04/28 01:54:59;;;;;;;0.90;0.80;;;;;;;20.83;36.56;102684.66;5011968;28;20053;-72
2022/04/28 01:57:29;;;;;;;0.97;0.80;;;;;;;20.84;36.44;102689.06;5011627;28;20037;-71
2022/04/28 01:59:56;;;;;;;1.35;0.90;;;;;;;20.84;36.63;102682.72;5011630;28;20048;-72
2022/04/28 02:02:22;;;;;;;0.80;0.80;;;;;;;20.83;36.20;102687.41;5011230;28;20118;-71
2022/04/28 02:04:48;;;;;;;0.65;0.63;;;;;;;20.83;36.37;102690.16;5010792;28;20095;-71
2022/04/28 02:07:13;;;;;;;1.30;1.20;;;;;;;20.83;36.28;102694.81;5009917;28;20041;-71
2022/04/28 02:09:43;;;;;;;1.70;1.10;;;;;;;20.83;36.48;102692.94;5011156;28;20038;-71
2022/04/28 02:12:10;;;;;;;1.65;0.90;;;;;;;20.83;36.32;102697.59;5011186;28;20545;-71
2022/04/28 02:14:36;;;;;;;1.20;1.10;;;;;;;20.82;36.36;102705.03;5011067;28;20050;-71
2022/04/28 02:17:04;;;;;;;0.98;0.75;;;;;;;20.83;36.35;102694.81;5010849;28;20034;-71
2022/04/28 02:19:30;;;;;;;0.93;0.75;;;;;;;20.83;36.23;102697.59;5011606;28;20118;-71
2022/04/28 02:21:55;;;;;;;1.23;1.00;;;;;;;20.82;36.36;102698.69;5011597;28;20042;-72
2022/04/28 02:24:21;;;;;;;0.80;0.80;;;;;;;20.81;36.43;102700.59;5011587;28;20065;-71
2022/04/28 02:26:46;;;;;;;1.48;0.93;;;;;;;20.81;36.43;102694.25;5009676;28;20030;-71
2022/04/28 02:29:12;;;;;;;1.40;0.85;;;;;;;20.80;36.26;102692.56;5011497;28;20048;-72
2022/04/28 02:31:37;;;;;;;0.80;0.80;;;;;;;20.79;36.37;102688.97;5009721;28;20158;-71
2022/04/28 02:34:03;;;;;;;0.80;0.80;;;;;;;20.80;36.14;102687.03;5010915;28;20038;-71
2022/04/28 02:36:28;;;;;;;0.95;0.80;;;;;;;20.79;36.24;102690.91;5010928;28;20026;-71
2022/04/28 02:38:53;;;;;;;1.00;0.80;;;;;;;20.79;36.20;102696.41;5011608;28;20061;-72
2022/04/28 02:41:22;;;;;;;0.77;0.70;;;;;;;20.78;36.31;102695.56;5010140;28;20128;-71
2022/04/28 02:43:50;;;;;;;0.93;0.93;;;;;;;20.78;36.27;102690.03;5009849;28;20062;-71
2022/04/28 02:46:17;;;;;;;0.90;0.90;;;;;;;20.78;36.13;102689.22;5009065;28;20124;-71
2022/04/28 02:48:42;;;;;;;2.22;1.08;;;;;;;20.77;36.24;102682.84;5011298;28;20116;-71
2022/04/28 02:51:08;;;;;;;0.85;0.85;;;;;;;20.78;36.34;102691.97;5010478;28;20459;-71
2022/04/28 02:53:34;;;;;;;0.70;0.70;;;;;;;20.76;36.46;102683.94;5012967;28;20141;-72
2022/04/28 02:56:00;;;;;;;0.85;0.85;;;;;;;20.77;36.35;102682.00;5014409;28;20033;-71
2022/04/28 02:58:25;;;;;;;1.13;0.80;;;;;;;20.77;36.41;102684.75;5014068;28;20037;-71
2022/04/28 03:00:51;;;;;;;0.95;0.88;;;;;;;20.75;36.58;102687.75;5014115;28;20034;-71
2022/04/28 03:03:16;;;;;;;0.80;0.80;;;;;;;20.76;36.32;102683.94;5014063;28;20161;-72
2022/04/28 03:11:09;;;;;;;1.05;0.93;;;;;;;20.74;36.27;102688.81;5013680;28;20413;-72
2022/04/28 03:13:36;;;;;;;0.80;0.80;;;;;;;20.74;36.25;102688.81;5013869;28;20030;-71
2022/04/28 03:16:02;;;;;;;0.80;0.80;;;;;;;20.74;36.40;102685.25;5013840;28;20060;-71
2022/04/28 03:18:28;;;;;;;1.08;0.90;;;;;;;20.74;36.21;102694.34;5013761;28;20026;-71
2022/04/28 03:20:54;;;;;;;1.00;0.90;;;;;;;20.73;36.25;102689.06;5013659;28;20120;-71
2022/04/28 03:23:20;;;;;;;0.80;0.80;;;;;;;20.73;36.33;102692.69;5013724;28;20045;-71
2022/04/28 03:25:45;;;;;;;0.80;0.77;;;;;;;20.72;36.18;102687.41;5013618;28;20038;-71
2022/04/28 03:28:11;;;;;;;0.77;0.77;;;;;;;20.72;36.10;102688.25;5012421;28;20030;-71
2022/04/28 03:30:36;;;;;;;0.68;0.68;;;;;;;20.73;36.07;102683.56;5013617;28;20037;-71
2022/04/28 03:33:02;;;;;;;1.10;1.10;;;;;;;20.72;36.34;102684.66;5012413;28;20030;-71
2022/04/28 03:35:27;;;;;;;1.15;1.05;;;;;;;20.70;36.23;102690.41;5014059;28;20034;-71
2022/04/28 03:37:53;;;;;;;1.48;1.20;;;;;;;20.72;36.40;102692.94;5012232;28;20033;-71
2022/04/28 03:40:18;;;;;;;1.17;0.80;;;;;;;20.71;36.25;102686.56;5012310;28;20525;-71
2022/04/28 03:42:44;;;;;;;0.77;0.77;;;;;;;20.71;36.17;102694.81;5013425;28;20041;-71
2022/04/28 03:45:10;;;;;;;1.20;1.00;;;;;;;20.70;36.02;102684.91;5013262;28;20484;-71
2022/04/28 03:47:36;;;;;;;1.05;1.00;;;;;;;20.70;35.99;102684.03;5013359;28;20046;-71
2022/04/28 03:50:06;;;;;;;1.15;1.00;;;;;;;20.71;36.11;102694.00;5013336;28;20026;-71
2022/04/28 03:52:32;;;;;;;1.17;1.08;;;;;;;20.70;36.13;102695.06;5013173;28;20118;-71
2022/04/28 03:54:57;;;;;;;1.25;1.15;;;;;;;20.68;36.12;102696.16;5012240;28;20121;-71
2022/04/28 03:57:23;;;;;;;1.27;1.17;;;;;;;20.68;36.07;102698.94;5013118;28;20030;-71
2022/04/28 03:59:48;;;;;;;1.20;1.00;;;;;;;20.70;36.04;102700.59;5013158;28;20062;-71
2022/04/28 04:02:13;;;;;;;0.77;0.77;;;;;;;20.68;36.20;102703.56;4995367;28;20033;-71
2022/04/28 04:04:39;;;;;;;0.98;0.98;;;;;;;20.68;36.06;102706.34;5012085;28;20029;-71
2022/04/28 04:07:05;;;;;;;1.88;0.88;;;;;;;20.67;36.26;102700.00;5012782;28;20196;-71
2022/04/28 04:09:32;;;;;;;1.15;0.90;;;;;;;20.66;35.94;102701.06;5013580;28;20046;-71
2022/04/28 04:11:57;;;;;;;0.80;0.80;;;;;;;20.67;36.06;102707.44;5013226;28;20424;-71
2022/04/28 04:14:23;;;;;;;1.33;0.90;;;;;;;20.66;36.24;102708.50;5011629;28;20050;-72
2022/04/28 04:16:48;;;;;;;0.80;0.80;;;;;;;20.65;36.21;102696.63;5013719;28;20037;-71
2022/04/28 04:19:14;;;;;;;0.90;0.90;;;;;;;20.65;36.26;102702.13;5012855;28;20493;-71
2022/04/28 04:21:39;;;;;;;1.40;1.00;;;;;;;20.66;36.19;102700.22;5012830;28;20030;-71
2022/04/28 04:24:06;;;;;;;1.08;1.00;;;;;;;20.65;36.15;102707.66;5012801;28;20026;-71
2022/04/28 04:26:31;;;;;;;0.73;0.73;;;;;;;20.65;36.34;102709.53;5012626;28;20029;-71
2022/04/28 04:28:57;;;;;;;0.98;0.90;;;;;;;20.65;36.25;102712.31;5011423;28;20026;-71
2022/04/28 04:34:06;;;;;;;0.98;0.88;;;;;;;20.64;36.17;102713.41;5013203;28;20088;-71
2022/04/28 04:36:31;;;;;;;0.95;0.95;;;;;;;20.63;36.05;102715.28;5013094;28;20482;-72
2022/04/28 04:38:57;;;;;;;1.55;1.10;;;;;;;20.65;36.28;102709.53;5013098;28;20477;-71
2022/04/28 04:41:22;;;;;;;0.82;0.82;;;;;;;20.64;36.09;102710.66;5012557;28;20069;-71
2022/04/28 04:43:47;;;;;;;0.88;0.88;;;;;;;20.64;36.05;102714.22;5012496;28;20037;-72
2022/04/28 04:46:13;;;;;;;0.85;0.85;;;;;;;20.63;36.06;102723.56;5012388;28;20446;-71
2022/04/28 04:48:38;;;;;;;0.90;0.90;;;;;;;20.64;35.87;102718.91;5010957;28;20428;-71
2022/04/28 04:51:04;;;;;;;1.08;1.00;;;;;;;20.64;36.17;102718.91;5012420;28;20453;-71
2022/04/28 04:53:30;;;;;;;1.02;0.90;;;;;;;20.64;36.05;102722.50;5011102;28;20057;-71
2022/04/28 04:55:55;;;;;;;0.98;0.88;;;;;;;20.63;36.20;102729.09;5012238;28;20033;-71
2022/04/28 04:58:20;;;;;;;0.95;0.95;;;;;;;20.64;36.11;102729.94;5012770;28;20054;-71
2022/04/28 05:00:46;;;;;;;0.80;0.80;;;;;;;20.64;36.59;102729.94;5012248;28;20026;-71
2022/04/28 05:03:13;;;;;;;1.17;1.08;;;;;;;20.64;36.57;102728.03;5012152;28;20033;-71
2022/04/28 05:05:38;;;;;;;1.15;1.00;;;;;;;20.64;36.13;102732.72;5012089;28;20481;-71
2022/04/28 05:08:04;;;;;;;1.20;1.10;;;;;;;20.64;36.26;102736.28;5012103;28;20030;-72
2022/04/28 05:10:30;;;;;;;1.00;0.95;;;;;;;20.64;36.07;102739.06;5012062;28;20030;-71
2022/04/28 05:12:56;;;;;;;0.80;0.80;;;;;;;20.64;36.37;102747.31;5012335;28;20458;-71
2022/04/28 05:15:21;;;;;;;1.30;1.20;;;;;;;20.61;33.87;102744.19;5012181;28;20058;-69
2022/04/28 05:17:47;;;;;;;1.80;1.42;;;;;;;20.37;32.66;102757.91;5011684;28;20409;-69
2022/04/28 05:20:13;;;;;;;2.90;2.20;;;;;;;20.03;32.13;102757.56;5010412;28;20044;-69
2022/04/28 05:22:38;;;;;;;2.67;2.33;;;;;;;19.72;32.67;102764.91;5011912;28;20041;-68
2022/04/28 05:25:04;;;;;;;3.80;2.50;;;;;;;19.44;32.96;102762.69;5010772;28;20042;-68
2022/04/28 05:27:29;;;;;;;4.05;2.50;;;;;;;19.20;33.25;102762.53;5011756;28;20029;-68
2022/04/28 05:29:55;;;;;;;2.97;2.30;;;;;;;19.01;33.75;102767.13;5011816;28;20462;-72
2022/04/28 05:32:20;;;;;;;4.50;2.40;;;;;;;18.85;34.29;102762.19;5010518;28;20135;-72
2022/04/28 05:34:46;;;;;;;2.33;2.13;;;;;;;18.81;34.71;102770.06;5010492;28;20087;-72
2022/04/28 05:37:14;;;;;;;2.53;2.22;;;;;;;18.93;34.78;102775.69;5011664;28;20363;-73
2022/04/28 05:39:41;;;;;;;2.58;2.20;;;;;;;19.06;34.90;102770.06;5011884;28;20485;-72
2022/04/28 05:42:07;;;;;;;3.15;2.05;;;;;;;19.22;34.82;102773.28;5011307;28;20038;-75
2022/04/28 05:47:19;;;;;;;2.13;1.90;;;;;;;19.49;35.62;102779.38;5012116;28;20585;-70
2022/04/28 05:49:45;;;;;;;2.35;1.98;;;;;;;19.60;35.20;102784.09;5010252;28;20168;-70
2022/04/28 05:52:10;;;;;;;4.00;2.03;;;;;;;19.69;35.78;102783.81;5011429;28;20065;-75
2022/04/28 05:54:36;;;;;;;1.88;1.77;;;;;;;19.74;35.51;102787.56;5010192;28;20033;-71
2022/04/28 05:57:02;;;;;;;1.88;1.65;;;;;;;19.82;35.53;102796.63;5011823;28;20128;-72
2022/04/28 05:59:28;;;;;;;2.10;1.70;;;;;;;19.85;35.66;102798.91;5010165;28;20045;-72
2022/04/28 06:01:53;;;;;;;1.70;1.40;;;;;;;19.91;35.76;102801.56;4994324;28;20045;-71
2022/04/28 06:04:19;;;;;;;2.03;1.83;;;;;;;19.95;35.83;102791.78;5010159;28;20053;-71
2022/04/28 06:06:45;;;;;;;3.15;2.00;;;;;;;20.01;35.84;102803.78;5009654;28;20044;-72
2022/04/28 06:09:10;;;;;;;3.90;1.80;;;;;;;20.04;36.08;102805.25;5011554;28;20034;-72
2022/04/28 06:11:36;;;;;;;1.58;1.48;;;;;;;20.06;36.18;102806.69;5009741;28;20030;-72
2022/04/28 06:14:01;;;;;;;2.55;1.70;;;;;;;20.10;36.24;102810.66;5010945;28;20037;-72
2022/04/28 06:16:27;;;;;;;1.50;1.40;;;;;;;20.13;36.18;102812.94;5010499;28;20034;-72
2022/04/28 06:18:52;;;;;;;1.50;1.40;;;;;;;20.16;36.23;102818.00;5010854;28;20038;-72
2022/04/28 06:21:17;;;;;;;4.45;1.50;;;;;;;20.19;36.26;102818.63;4993811;28;20120;-72
2022/04/28 06:23:45;;;;;;;2.30;1.50;;;;;;;20.21;36.09;102821.97;5010793;28;20065;-72
2022/04/28 06:26:10;;;;;;;2.33;1.45;;;;;;;20.20;36.02;102821.13;5009785;28;20026;-72
2022/04/28 06:28:36;;;;;;;1.88;1.65;;;;;;;20.23;36.08;102817.91;5013313;28;20138;-72
2022/04/28 06:31:01;;;;;;;1.58;1.48;;;;;;;20.24;35.87;102822.38;5014476;28;20485;-71
2022/04/28 06:33:26;;;;;;;1.50;1.40;;;;;;;20.27;35.97;102824.66;5012975;28;20041;-71
2022/04/28 06:35:52;;;;;;;2.08;1.70;;;;;;;20.29;36.27;102835.44;5029594;28;20062;-71
2022/04/28 06:38:17;;;;;;;1.60;1.40;;;;;;;20.29;35.99;102832.69;5013204;28;20041;-71
2022/04/28 06:40:43;;;;;;;1.63;1.40;;;;;;;20.30;35.97;102829.69;5014115;28;20030;-71
2022/04/28 06:43:08;;;;;;;1.63;1.52;;;;;;;20.31;35.90;102823.13;5014652;28;20488;-71
2022/04/28 06:45:34;;;;;;;2.33;1.50;;;;;;;20.34;36.13;102827.31;5014288;28;20389;-73
2022/04/28 06:48:01;;;;;;;2.22;1.80;;;;;;;20.34;35.60;102827.31;5045560;28;20139;-70
2022/04/28 06:50:26;;;;;;;2.65;2.08;;;;;;;20.25;35.22;102826.78;5014421;28;20058;-71
2022/04/28 06:52:52;;;;;;;2.70;1.92;;;;;;;20.19;35.08;102833.22;5014570;28;20126;-72
2022/04/28 06:55:18;;;;;;;3.50;1.85;;;;;;;20.16;35.44;102834.53;5029368;28;20116;-75
2022/04/28 06:57:43;;;;;;;2.90;1.98;;;;;;;20.17;35.77;102840.91;5013332;28;20446;-74
2022/04/28 07:00:09;;;;;;;2.90;2.03;;;;;;;20.19;35.36;102837.91;5014025;28;20049;-74
2022/04/28 07:02:35;;;;;;;2.03;1.67;;;;;;;20.21;35.43;102852.28;5012786;28;20045;-74
2022/04/28 07:05:00;;;;;;;2.67;1.90;;;;;;;20.24;35.29;102849.06;5014178;28;20034;-74
2022/04/28 07:07:26;;;;;;;2.67;1.60;;;;;;;20.23;35.13;102836.38;5013946;28;20033;-74
2022/04/28 07:09:52;;;;;;;1.88;1.63;;;;;;;20.27;35.21;102859.63;5012433;28;20470;-75
2022/04/28 07:12:17;;;;;;;2.70;1.55;;;;;;;20.28;35.20;102853.88;5012878;28;20065;-74
2022/04/28 07:14:43;;;;;;;1.73;1.60;;;;;;;20.28;34.91;102859.38;4995940;28;20058;-75
2022/04/28 07:17:10;;;;;;;1.60;1.50;;;;;;;20.31;35.00;102858.09;5013757;28;20034;-74
2022/04/28 07:19:35;;;;;;;1.63;1.52;;;;;;;20.33;35.02;102864.22;5012819;28;20038;-74
2022/04/28 07:22:03;;;;;;;1.83;1.50;;;;;;;20.35;34.59;102872.25;5012541;28;20378;-75
2022/04/28 07:24:29;;;;;;;2.05;1.60;;;;;;;20.35;35.16;102878.59;5012573;28;20033;-73
2022/04/28 07:26:55;;;;;;;2.45;1.77;;;;;;;20.38;34.97;102875.38;5028762;28;20030;-73
2022/04/28 07:29:21;;;;;;;2.00;1.50;;;;;;;20.39;35.13;102867.94;5012658;28;20049;-74
2022/04/28 07:31:46;;;;;;;1.98;1.73;;;;;;;20.39;35.40;102871.56;5013591;28;20030;-74
2022/04/28 07:34:12;;;;;;;1.58;1.48;;;;;;;20.41;35.61;102879.59;5012387;28;20044;-75
2022/04/28 07:36:38;;;;;;;1.65;1.45;;;;;;;20.40;35.47;102887.00;5013776;28;20094;-75
2022/04/28 07:39:03;;;;;;;1.65;1.38;;;;;;;20.40;35.44;102887.00;5010993;28;20048;-76
2022/04/28 07:41:29;;;;;;;1.60;1.40;;;;;;;20.41;35.44;102888.69;5012558;28;20026;-76
2022/04/28 07:43:54;;;;;;;1.50;1.40;;;;;;;20.42;35.07;102892.31;5013644;28;20385;-76
2022/04/28 07:46:20;;;;;;;1.33;1.23;;;;;;;20.43;34.72;102885.72;4995776;28;20475;-76
2022/04/28 07:48:45;;;;;;;2.33;1.40;;;;;;;20.42;34.79;102889.56;5011870;28;20033;-76
2022/04/28 07:51:11;;;;;;;1.85;1.42;;;;;;;20.43;34.87;102892.09;5012069;28;20531;-76
2022/04/28 07:53:37;;;;;;;1.40;1.30;;;;;;;20.44;34.69;102899.25;5012380;28;20026;-75
2022/04/28 07:56:17;;;;;;;2.13;1.13;;;;;;;20.46;34.67;102899.03;5012870;28;20520;-76
2022/04/28 07:58:43;;;;;;;1.83;1.40;;;;;;;20.46;34.39;102904.53;5013373;28;20034;-75
2022/04/28 08:01:10;;;;;;;1.30;1.20;;;;;;;20.46;34.71;102897.13;4995590;28;20064;-76
2022/04/28 08:03:36;;;;;;;1.85;1.42;;;;;;;20.46;34.96;102899.88;5011808;28;20046;-74
2022/04/28 08:06:01;;;;;;;1.35;1.23;;;;;;;20.47;35.28;102900.72;5028341;28;20040;-74
2022/04/28 08:08:27;;;;;;;2.35;1.65;;;;;;;20.47;34.58;102909.81;5011492;28;20026;-74
2022/04/28 08:10:53;;;;;;;2.22;1.45;;;;;;;20.47;34.70;102907.06;5012735;28;20029;-74
2022/04/28 08:13:19;;;;;;;2.03;1.48;;;;;;;20.47;35.02;102909.81;5011633;28;20481;-74
2022/04/28 08:15:44;;;;;;;2.00;1.33;;;;;;;20.45;34.75;102900.94;5013222;28;20095;-74
2022/04/28 08:18:10;;;;;;;1.63;1.30;;;;;;;20.47;34.63;102904.31;5011992;28;20050;-74
2022/04/28 08:20:35;;;;;;;1.40;1.27;;;;;;;20.48;34.59;102913.44;5011294;28;20040;-74
2022/04/28 08:23:01;;;;;;;1.42;1.30;;;;;;;20.50;34.73;102916.78;4995168;28;20029;-74
2022/04/28 08:25:26;;;;;;;1.65;1.02;;;;;;;20.50;34.98;102914.03;5012394;28;20432;-74
2022/04/28 08:27:52;;;;;;;1.30;1.20;;;;;;;20.48;34.63;102921.72;4994751;28;20038;-74
2022/04/28 08:30:17;;;;;;;2.05;1.27;;;;;;;20.50;34.71;102919.56;5012946;28;20041;-74
2022/04/28 08:32:43;;;;;;;1.63;1.20;;;;;;;20.50;34.75;102914.03;5011242;28;20065;-74
2022/04/28 08:35:08;;;;;;;1.42;1.30;;;;;;;20.50;34.72;102917.63;5011401;28;20038;-74
2022/04/28 08:37:36;;;;;;;1.30;1.08;;;;;;;20.50;34.76;102920.38;5011314;28;20053;-74
2022/04/28 08:40:02;;;;;;;1.98;1.30;;;;;;;20.51;35.04;102930.34;5013045;28;20032;-74
2022/04/28 08:42:29;;;;;;;1.30;1.20;;;;;;;20.51;35.10;102922.06;5012277;28;20030;-74
2022/04/28 08:44:59;;;;;;;1.70;1.30;;;;;;;20.51;35.22;102926.75;5012169;28;20371;-74
2022/04/28 08:47:25;;;;;;;1.85;1.30;;;;;;;20.52;35.11;102922.91;5012711;28;20065;-74
2022/04/28 08:49:50;;;;;;;1.45;1.15;;;;;;;20.51;35.21;102926.75;5010599;28;20033;-74
2022/04/28 08:52:17;;;;;;;2.70;1.45;;;;;;;20.51;35.47;102930.34;5011048;28;20030;-74
2022/04/28 08:54:45;;;;;;;1.15;0.95;;;;;;;20.52;34.98;102925.66;5011400;28;20030;-74
2022/04/28 08:57:13;;;;;;;1.40;1.10;;;;;;;20.51;35.13;102924.84;5011034;28;20125;-74
2022/04/28 08:59:39;;;;;;;2.45;1.20;;;;;;;20.51;35.43;102919.31;5012312;28;20065;-74
2022/04/28 09:02:04;;;;;;;1.67;1.20;;;;;;;20.51;35.25;102915.72;5012200;28;20037;-74
2022/04/28 09:04:30;;;;;;;1.30;1.20;;;;;;;20.53;34.83;102915.50;5010879;28;20029;-74
2022/04/28 09:06:57;;;;;;;2.50;1.50;;;;;;;20.53;35.42;102912.75;5010514;28;20085;-74
2022/04/28 09:09:24;;;;;;;1.30;1.20;;;;;;;20.54;35.29;102922.69;5012349;28;20455;-74
2022/04/28 09:11:50;;;;;;;1.23;1.10;;;;;;;20.51;35.07;102916.56;4994393;28;20489;-74
2022/04/28 09:14:20;;;;;;;4.35;1.83;;;;;;;20.54;35.30;102925.47;4994566;28;20037;-74
2022/04/28 09:16:45;;;;;;;1.60;1.30;;;;;;;20.54;35.03;102911.69;5028020;28;20034;-74
2022/04/28 09:19:33;;;;;;;1.30;1.20;;;;;;;20.56;35.64;102915.84;5010950;28;20373;-71
2022/04/28 09:22:10;;;;;;;1.33;1.13;;;;;;;20.55;35.16;102914.19;5012033;28;20033;-73
2022/04/28 09:24:37;;;;;;;1.58;1.48;;;;;;;20.57;35.01;102920.31;5010881;28;20149;-74
2022/04/28 09:27:03;;;;;;;1.45;1.30;;;;;;;20.57;35.31;102908.44;5010764;28;20033;-74
2022/04/28 09:29:30;;;;;;;1.42;1.33;;;;;;;20.56;35.64;102904.81;5011739;28;20141;-74
2022/04/28 09:31:56;;;;;;;2.08;1.45;;;;;;;20.57;35.84;102909.28;5012212;28;20462;-74
2022/04/28 09:34:25;;;;;;;1.67;1.20;;;;;;;20.57;35.77;102912.03;5010578;28;20045;-74
2022/04/28 09:36:51;;;;;;;1.40;1.27;;;;;;;20.59;35.95;102906.28;5010477;28;20162;-74
2022/04/28 09:44:53;;;;;;;1.52;1.38;;;;;;;20.58;35.71;102904.59;5012086;28;20048;-74
2022/04/28 09:47:19;;;;;;;4.88;1.25;;;;;;;20.58;35.66;102905.47;5011821;28;20052;-74
2022/04/28 09:49:52;;;;;;;1.42;1.15;;;;;;;20.59;35.76;102900.78;5010239;28;20112;-74
2022/04/28 09:52:30;;;;;;;1.90;1.33;;;;;;;20.61;35.69;102904.13;5010483;28;20038;-74
2022/04/28 09:55:03;;;;;;;1.33;1.10;;;;;;;20.60;35.83;102907.97;5010472;28;20065;-74
2022/04/28 09:57:29;;;;;;;1.27;1.20;;;;;;;20.60;35.90;102902.47;5011941;28;20061;-73
2022/04/28 09:59:58;;;;;;;1.35;1.25;;;;;;;20.60;35.33;102900.53;5009923;28;20110;-73
2022/04/28 10:02:27;;;;;;;1.88;1.20;;;;;;;20.60;35.89;102897.78;5009329;28;20037;-74
2022/04/28 10:04:54;;;;;;;1.30;1.20;;;;;;;20.60;35.58;102892.25;5011222;28;20026;-74
2022/04/28 10:07:21;;;;;;;1.10;1.05;;;;;;;20.60;36.22;102888.69;5011207;28;20038;-74
2022/04/28 10:09:49;;;;;;;1.42;1.23;;;;;;;20.62;35.80;102886.50;5010526;28;20040;-74
2022/04/28 10:12:19;;;;;;;1.02;0.98;;;;;;;20.61;35.65;102891.19;5011143;28;20030;-74
2022/04/28 10:14:45;;;;;;;1.30;1.20;;;;;;;20.61;35.22;102880.16;5011523;28;20474;-74
2022/04/28 10:17:15;;;;;;;2.40;1.15;;;;;;;20.63;35.93;102885.44;5011129;28;20075;-73
2022/04/28 10:19:47;;;;;;;1.52;1.17;;;;;;;20.63;35.53;102891.78;5010028;28;20026;-74
2022/04/28 10:22:15;;;;;;;;;;;;;;;20.65;35.71;102892.41;5010545;28;20458;-74
2022/04/28 10:33:14;;;;;;;1.05;1.02;;;;;;;20.63;35.21;102874.41;5011502;28;20037;-74
2022/04/28 10:35:44;;;;;;;1.40;1.30;;;;;;;20.64;35.36;102887.16;5010725;28;20041;-74
2022/04/28 10:38:26;;;;;;;1.42;1.20;;;;;;;20.64;35.15;102879.69;5010890;28;20105;-73
2022/04/28 10:40:59;;;;;;;1.38;1.00;;;;;;;20.64;36.22;102879.69;5009925;28;20042;-74
2022/04/28 10:43:37;;;;;;;1.42;1.10;;;;;;;20.65;35.14;102875.88;5010751;28;20026;-74
2022/04/28 10:46:08;;;;;;;1.30;1.20;;;;;;;20.66;35.09;102863.78;5010535;28;20026;-74
2022/04/28 10:48:46;;;;;;;1.33;1.23;;;;;;;20.66;35.04;102865.69;5009438;28;20034;-74
2022/04/28 10:51:17;;;;;;;1.40;1.05;;;;;;;20.67;34.69;102864.63;5010674;28;20026;-74
2022/04/28 10:54:03;;;;;;;2.30;1.48;;;;;;;20.70;34.96;102868.81;5009521;28;20118;-74
2022/04/28 10:57:01;;;;;;;1.10;1.00;;;;;;;20.71;34.89;102865.00;5009386;28;20038;-74
2022/04/28 10:59:27;;;;;;;1.60;1.05;;;;;;;20.70;34.75;102860.53;5011004;28;20375;-74
2022/04/28 11:01:52;;;;;;;1.65;1.20;;;;;;;20.71;34.84;102859.47;5010623;28;20030;-74
2022/04/28 11:04:25;;;;;;;1.33;1.23;;;;;;;20.72;35.05;102859.25;5010792;28;20458;-75
2022/04/28 11:06:56;;;;;;;1.52;1.13;;;;;;;20.74;36.52;102861.75;5011103;28;20121;-81
2022/04/28 11:09:39;;;;;;;1.65;1.20;;;;;;;20.76;36.40;102865.97;5009081;28;20030;-74
2022/04/28 11:12:18;;;;;;;1.10;1.10;;;;;;;20.76;36.41;102857.69;5010177;28;20066;-74
2022/04/28 11:14:50;;;;;;;1.20;1.10;;;;;;;20.78;36.22;102857.47;5012892;28;20455;-74
2022/04/28 11:17:18;;;;;;;1.55;1.20;;;;;;;20.78;36.22;102858.28;5013728;28;20555;-74
2022/04/28 11:19:44;;;;;;;1.02;1.02;;;;;;;20.78;35.86;102850.03;5013803;28;20034;-74
2022/04/28 11:22:13;;;;;;;1.23;1.13;;;;;;;20.78;36.19;102852.78;5012331;28;20038;-75
2022/04/28 11:24:46;;;;;;;1.15;1.05;;;;;;;20.81;36.06;102860.56;5012471;28;20462;-75
2022/04/28 11:27:18;;;;;;;1.20;1.10;;;;;;;20.82;36.10;102851.25;5012061;28;20030;-74
2022/04/28 11:29:44;;;;;;;1.45;1.00;;;;;;;20.82;36.12;102848.47;5014473;28;20034;-74
2022/04/28 11:32:11;;;;;;;1.30;1.10;;;;;;;20.83;36.39;102849.31;4996394;28;20456;-74
2022/04/28 11:34:37;;;;;;;1.15;1.05;;;;;;;20.84;36.09;102854.59;5012429;28;20060;-74
2022/04/28 11:37:13;;;;;;;1.33;1.10;;;;;;;20.85;36.17;102844.41;5013519;28;20036;-74
2022/04/28 11:39:38;;;;;;;1.30;1.23;;;;;;;20.85;36.38;102850.75;5013479;28;20079;-74
2022/04/28 11:42:08;;;;;;;1.55;1.20;;;;;;;20.87;36.40;102842.25;5013961;28;20038;-74
2022/04/28 11:44:34;;;;;;;1.42;0.93;;;;;;;20.86;36.47;102837.84;5013988;28;20060;-74
2022/04/28 11:46:59;;;;;;;1.55;1.23;;;;;;;20.87;36.57;102833.97;5011896;28;20057;-75
2022/04/28 11:49:32;;;;;;;0.82;0.82;;;;;;;20.90;36.42;102850.06;5013379;28;20038;-74
2022/04/28 11:51:58;;;;;;;1.10;1.00;;;;;;;20.90;36.52;102841.78;5012901;28;20401;-74
2022/04/28 11:54:26;;;;;;;1.13;1.02;;;;;;;20.93;36.45;102851.50;5012086;28;20034;-74